Terminal Aerodrome Forecast
Issued by NWS

Current Version | Previous Version | Graphics & Text | Print | Product List | Glossary On
Versions: 1 2 3 4 5 6 7 8 9 10 11 12 13 14 15 16 17 18 19 20 21 22 23 24
000
FTUS41 KPBZ 230800 AAA
TAFHLG
TAF AMD
KHLG 230818Z 2308/2406 00000KT 4SM BR SKC
      TEMPO 2308/2311 00000KT 1SM BR SCT002
     FM231300 07003KT P6SM SKC=

USA.gov is the U.S. government's official web portal to all federal, state and local government web resources and services.